sensor_id;sensor_type;location;lat;lon;timestamp;P1;durP1;ratioP1;P2;durP2;ratioP2
45887;SDS011;31595;51.418;7.572;2022-07-21T00:00:33;14.80;;;13.40;;
45887;SDS011;31595;51.418;7.572;2022-07-21T00:03:00;13.25;;;12.07;;
45887;SDS011;31595;51.418;7.572;2022-07-21T00:05:29;13.23;;;11.93;;
45887;SDS011;31595;51.418;7.572;2022-07-21T00:07:56;15.30;;;13.90;;
45887;SDS011;31595;51.418;7.572;2022-07-21T00:10:24;12.60;;;11.40;;
45887;SDS011;31595;51.418;7.572;2022-07-21T00:12:53;15.20;;;13.60;;
45887;SDS011;31595;51.418;7.572;2022-07-21T00:15:22;13.45;;;12.02;;
45887;SDS011;31595;51.418;7.572;2022-07-21T00:17:51;12.95;;;11.70;;
45887;SDS011;31595;51.418;7.572;2022-07-21T00:20:19;14.13;;;12.73;;
45887;SDS011;31595;51.418;7.572;2022-07-21T00:22:50;13.20;;;11.77;;
45887;SDS011;31595;51.418;7.572;2022-07-21T00:25:17;14.25;;;12.75;;
45887;SDS011;31595;51.418;7.572;2022-07-21T00:27:45;12.85;;;11.65;;
45887;SDS011;31595;51.418;7.572;2022-07-21T00:30:14;12.77;;;11.40;;
45887;SDS011;31595;51.418;7.572;2022-07-21T00:32:42;13.77;;;12.27;;
45887;SDS011;31595;51.418;7.572;2022-07-21T00:35:10;14.82;;;13.32;;
45887;SDS011;31595;51.418;7.572;2022-07-21T00:37:41;14.75;;;13.23;;
45887;SDS011;31595;51.418;7.572;2022-07-21T00:40:10;14.07;;;12.60;;
45887;SDS011;31595;51.418;7.572;2022-07-21T00:42:41;16.38;;;14.50;;
45887;SDS011;31595;51.418;7.572;2022-07-21T00:45:10;14.85;;;13.43;;
45887;SDS011;31595;51.418;7.572;2022-07-21T00:47:39;15.30;;;13.70;;
45887;SDS011;31595;51.418;7.572;2022-07-21T00:50:08;15.43;;;13.95;;
45887;SDS011;31595;51.418;7.572;2022-07-21T00:52:38;14.85;;;13.27;;
45887;SDS011;31595;51.418;7.572;2022-07-21T00:55:06;14.23;;;12.80;;
45887;SDS011;31595;51.418;7.572;2022-07-21T00:57:36;13.30;;;11.98;;
45887;SDS011;31595;51.418;7.572;2022-07-21T01:00:04;12.75;;;11.55;;
45887;SDS011;31595;51.418;7.572;2022-07-21T01:02:35;13.38;;;12.05;;
45887;SDS011;31595;51.418;7.572;2022-07-21T01:05:05;12.45;;;11.25;;
45887;SDS011;31595;51.418;7.572;2022-07-21T01:07:38;12.52;;;11.32;;
45887;SDS011;31595;51.418;7.572;2022-07-21T01:10:06;12.55;;;11.35;;
45887;SDS011;31595;51.418;7.572;2022-07-21T01:12:34;12.35;;;11.05;;
45887;SDS011;31595;51.418;7.572;2022-07-21T01:15:04;12.20;;;11.10;;
45887;SDS011;31595;51.418;7.572;2022-07-21T01:17:31;11.18;;;10.07;;
45887;SDS011;31595;51.418;7.572;2022-07-21T01:20:00;12.02;;;10.00;;
45887;SDS011;31595;51.418;7.572;2022-07-21T01:22:37;11.98;;;10.77;;
45887;SDS011;31595;51.418;7.572;2022-07-21T01:25:07;11.48;;;10.38;;
45887;SDS011;31595;51.418;7.572;2022-07-21T01:27:35;11.07;;;9.97;;
45887;SDS011;31595;51.418;7.572;2022-07-21T01:30:03;10.80;;;9.77;;
45887;SDS011;31595;51.418;7.572;2022-07-21T01:32:33;10.68;;;9.57;;
45887;SDS011;31595;51.418;7.572;2022-07-21T01:35:01;10.68;;;9.43;;
45887;SDS011;31595;51.418;7.572;2022-07-21T01:37:31;11.38;;;10.30;;
45887;SDS011;31595;51.418;7.572;2022-07-21T01:40:02;11.52;;;10.35;;
45887;SDS011;31595;51.418;7.572;2022-07-21T01:42:47;12.07;;;9.75;;
45887;SDS011;31595;51.418;7.572;2022-07-21T01:45:14;10.85;;;9.73;;
45887;SDS011;31595;51.418;7.572;2022-07-21T01:47:42;10.85;;;9.68;;
45887;SDS011;31595;51.418;7.572;2022-07-21T01:50:11;11.32;;;10.18;;
45887;SDS011;31595;51.418;7.572;2022-07-21T01:52:39;10.68;;;9.68;;
45887;SDS011;31595;51.418;7.572;2022-07-21T01:55:08;10.55;;;9.43;;
45887;SDS011;31595;51.418;7.572;2022-07-21T02:00:03;12.85;;;10.15;;
45887;SDS011;31595;51.418;7.572;2022-07-21T02:02:31;12.45;;;10.18;;
45887;SDS011;31595;51.418;7.572;2022-07-21T02:04:59;10.73;;;9.63;;
45887;SDS011;31595;51.418;7.572;2022-07-21T02:07:28;11.38;;;10.18;;
45887;SDS011;31595;51.418;7.572;2022-07-21T02:09:55;10.55;;;9.50;;
45887;SDS011;31595;51.418;7.572;2022-07-21T02:12:24;9.65;;;8.63;;
45887;SDS011;31595;51.418;7.572;2022-07-21T02:14:51;10.32;;;8.32;;
45887;SDS011;31595;51.418;7.572;2022-07-21T02:17:18;9.63;;;8.73;;
45887;SDS011;31595;51.418;7.572;2022-07-21T02:19:54;9.15;;;8.10;;
45887;SDS011;31595;51.418;7.572;2022-07-21T02:22:21;9.20;;;7.80;;
45887;SDS011;31595;51.418;7.572;2022-07-21T02:24:48;9.75;;;8.38;;
45887;SDS011;31595;51.418;7.572;2022-07-21T02:27:16;8.52;;;7.63;;
45887;SDS011;31595;51.418;7.572;2022-07-21T02:29:44;13.10;;;8.43;;
45887;SDS011;31595;51.418;7.572;2022-07-21T02:32:12;10.82;;;8.23;;
45887;SDS011;31595;51.418;7.572;2022-07-21T02:34:39;9.48;;;8.38;;
45887;SDS011;31595;51.418;7.572;2022-07-21T02:37:06;11.93;;;8.27;;
45887;SDS011;31595;51.418;7.572;2022-07-21T02:39:33;8.82;;;7.43;;
45887;SDS011;31595;51.418;7.572;2022-07-21T02:42:01;10.05;;;6.97;;
45887;SDS011;31595;51.418;7.572;2022-07-21T02:44:28;8.60;;;7.05;;
45887;SDS011;31595;51.418;7.572;2022-07-21T02:46:58;8.60;;;7.30;;
45887;SDS011;31595;51.418;7.572;2022-07-21T02:49:25;9.00;;;8.15;;
45887;SDS011;31595;51.418;7.572;2022-07-21T02:51:52;9.65;;;8.55;;
45887;SDS011;31595;51.418;7.572;2022-07-21T02:54:19;10.70;;;8.10;;
45887;SDS011;31595;51.418;7.572;2022-07-21T02:56:49;9.80;;;7.93;;
45887;SDS011;31595;51.418;7.572;2022-07-21T02:59:19;8.45;;;7.35;;
45887;SDS011;31595;51.418;7.572;2022-07-21T03:04:15;8.63;;;7.72;;
45887;SDS011;31595;51.418;7.572;2022-07-21T03:06:46;8.70;;;7.75;;
45887;SDS011;31595;51.418;7.572;2022-07-21T03:09:13;9.02;;;8.13;;
45887;SDS011;31595;51.418;7.572;2022-07-21T03:11:41;9.40;;;8.13;;
45887;SDS011;31595;51.418;7.572;2022-07-21T03:14:11;9.25;;;7.70;;
45887;SDS011;31595;51.418;7.572;2022-07-21T03:16:38;8.65;;;7.75;;
45887;SDS011;31595;51.418;7.572;2022-07-21T03:19:09;9.15;;;7.47;;
45887;SDS011;31595;51.418;7.572;2022-07-21T03:21:37;10.70;;;9.55;;
45887;SDS011;31595;51.418;7.572;2022-07-21T03:24:05;10.50;;;9.38;;
45887;SDS011;31595;51.418;7.572;2022-07-21T03:26:33;9.50;;;8.55;;
45887;SDS011;31595;51.418;7.572;2022-07-21T03:29:04;10.43;;;9.32;;
45887;SDS011;31595;51.418;7.572;2022-07-21T03:31:31;9.68;;;8.32;;
45887;SDS011;31595;51.418;7.572;2022-07-21T03:33:59;10.18;;;9.10;;
45887;SDS011;31595;51.418;7.572;2022-07-21T03:36:26;8.50;;;7.57;;
45887;SDS011;31595;51.418;7.572;2022-07-21T03:38:55;8.93;;;8.02;;
45887;SDS011;31595;51.418;7.572;2022-07-21T03:41:22;10.73;;;9.07;;
45887;SDS011;31595;51.418;7.572;2022-07-21T03:43:51;9.82;;;8.27;;
45887;SDS011;31595;51.418;7.572;2022-07-21T03:46:18;11.90;;;10.20;;
45887;SDS011;31595;51.418;7.572;2022-07-21T03:48:49;9.35;;;7.88;;
45887;SDS011;31595;51.418;7.572;2022-07-21T03:51:17;7.45;;;6.75;;
45887;SDS011;31595;51.418;7.572;2022-07-21T03:53:46;6.43;;;5.82;;
45887;SDS011;31595;51.418;7.572;2022-07-21T03:58:45;7.80;;;6.97;;
45887;SDS011;31595;51.418;7.572;2022-07-21T04:01:14;7.10;;;6.40;;
45887;SDS011;31595;51.418;7.572;2022-07-21T04:03:42;7.00;;;6.13;;
45887;SDS011;31595;51.418;7.572;2022-07-21T04:06:09;7.57;;;6.70;;
45887;SDS011;31595;51.418;7.572;2022-07-21T04:08:36;6.45;;;5.43;;
45887;SDS011;31595;51.418;7.572;2022-07-21T04:11:04;6.20;;;5.60;;
45887;SDS011;31595;51.418;7.572;2022-07-21T04:13:35;7.35;;;6.65;;
45887;SDS011;31595;51.418;7.572;2022-07-21T04:16:03;7.13;;;6.43;;
45887;SDS011;31595;51.418;7.572;2022-07-21T04:18:30;8.25;;;6.82;;
45887;SDS011;31595;51.418;7.572;2022-07-21T04:20:57;7.25;;;6.55;;
45887;SDS011;31595;51.418;7.572;2022-07-21T04:23:25;6.47;;;5.63;;
45887;SDS011;31595;51.418;7.572;2022-07-21T04:25:52;7.00;;;6.32;;
45887;SDS011;31595;51.418;7.572;2022-07-21T04:28:20;7.50;;;6.78;;
45887;SDS011;31595;51.418;7.572;2022-07-21T04:30:48;7.90;;;7.10;;
45887;SDS011;31595;51.418;7.572;2022-07-21T04:33:16;7.28;;;6.32;;
45887;SDS011;31595;51.418;7.572;2022-07-21T04:35:43;6.53;;;5.93;;
45887;SDS011;31595;51.418;7.572;2022-07-21T04:38:10;6.55;;;5.95;;
45887;SDS011;31595;51.418;7.572;2022-07-21T04:40:38;7.30;;;6.60;;
45887;SDS011;31595;51.418;7.572;2022-07-21T04:43:05;9.13;;;7.25;;
45887;SDS011;31595;51.418;7.572;2022-07-21T04:45:33;7.30;;;6.60;;
45887;SDS011;31595;51.418;7.572;2022-07-21T04:48:02;6.80;;;6.18;;
45887;SDS011;31595;51.418;7.572;2022-07-21T04:50:29;7.72;;;6.93;;
45887;SDS011;31595;51.418;7.572;2022-07-21T04:52:57;7.05;;;5.75;;
45887;SDS011;31595;51.418;7.572;2022-07-21T04:55:25;7.25;;;6.55;;
45887;SDS011;31595;51.418;7.572;2022-07-21T04:57:53;7.70;;;6.90;;
45887;SDS011;31595;51.418;7.572;2022-07-21T05:00:23;9.20;;;7.15;;
45887;SDS011;31595;51.418;7.572;2022-07-21T05:02:52;7.40;;;6.70;;
45887;SDS011;31595;51.418;7.572;2022-07-21T05:05:21;8.63;;;7.83;;
45887;SDS011;31595;51.418;7.572;2022-07-21T05:07:50;9.40;;;8.50;;
45887;SDS011;31595;51.418;7.572;2022-07-21T05:10:17;9.43;;;7.80;;
45887;SDS011;31595;51.418;7.572;2022-07-21T05:15:13;10.00;;;9.00;;
45887;SDS011;31595;51.418;7.572;2022-07-21T05:17:41;10.95;;;9.95;;
45887;SDS011;31595;51.418;7.572;2022-07-21T05:20:09;9.30;;;8.40;;
45887;SDS011;31595;51.418;7.572;2022-07-21T05:22:39;10.65;;;9.50;;
45887;SDS011;31595;51.418;7.572;2022-07-21T05:25:07;9.20;;;8.40;;
45887;SDS011;31595;51.418;7.572;2022-07-21T05:27:34;10.95;;;9.85;;
45887;SDS011;31595;51.418;7.572;2022-07-21T05:30:02;9.68;;;8.77;;
45887;SDS011;31595;51.418;7.572;2022-07-21T05:32:29;10.05;;;8.88;;
45887;SDS011;31595;51.418;7.572;2022-07-21T05:34:57;10.30;;;9.20;;
45887;SDS011;31595;51.418;7.572;2022-07-21T05:37:24;10.35;;;9.27;;
45887;SDS011;31595;51.418;7.572;2022-07-21T05:39:54;11.02;;;9.95;;
45887;SDS011;31595;51.418;7.572;2022-07-21T05:42:22;11.55;;;10.45;;
45887;SDS011;31595;51.418;7.572;2022-07-21T05:44:49;13.00;;;10.52;;
45887;SDS011;31595;51.418;7.572;2022-07-21T05:47:16;12.20;;;11.00;;
45887;SDS011;31595;51.418;7.572;2022-07-21T05:49:44;12.75;;;11.55;;
45887;SDS011;31595;51.418;7.572;2022-07-21T05:52:11;12.38;;;11.25;;
45887;SDS011;31595;51.418;7.572;2022-07-21T05:54:38;12.98;;;11.75;;
45887;SDS011;31595;51.418;7.572;2022-07-21T05:57:07;12.88;;;11.68;;
45887;SDS011;31595;51.418;7.572;2022-07-21T05:59:34;13.90;;;12.60;;
45887;SDS011;31595;51.418;7.572;2022-07-21T06:02:02;11.70;;;10.68;;
45887;SDS011;31595;51.418;7.572;2022-07-21T06:04:29;12.77;;;11.68;;
45887;SDS011;31595;51.418;7.572;2022-07-21T06:06:56;12.07;;;11.05;;
45887;SDS011;31595;51.418;7.572;2022-07-21T06:09:24;13.15;;;11.73;;
45887;SDS011;31595;51.418;7.572;2022-07-21T06:11:51;12.05;;;10.95;;
45887;SDS011;31595;51.418;7.572;2022-07-21T06:14:22;13.60;;;12.30;;
45887;SDS011;31595;51.418;7.572;2022-07-21T06:16:50;13.65;;;12.35;;
45887;SDS011;31595;51.418;7.572;2022-07-21T06:19:18;12.15;;;10.80;;
45887;SDS011;31595;51.418;7.572;2022-07-21T06:21:48;12.35;;;11.23;;
45887;SDS011;31595;51.418;7.572;2022-07-21T06:24:15;13.25;;;12.07;;
45887;SDS011;31595;51.418;7.572;2022-07-21T06:26:48;12.20;;;11.00;;
45887;SDS011;31595;51.418;7.572;2022-07-21T06:29:15;12.80;;;11.63;;
45887;SDS011;31595;51.418;7.572;2022-07-21T06:31:44;13.15;;;11.95;;
45887;SDS011;31595;51.418;7.572;2022-07-21T06:34:15;13.52;;;12.32;;
45887;SDS011;31595;51.418;7.572;2022-07-21T06:36:42;12.50;;;11.38;;
45887;SDS011;31595;51.418;7.572;2022-07-21T06:39:10;12.82;;;11.50;;
45887;SDS011;31595;51.418;7.572;2022-07-21T06:41:38;13.35;;;12.15;;
45887;SDS011;31595;51.418;7.572;2022-07-21T06:44:11;11.90;;;10.63;;
45887;SDS011;31595;51.418;7.572;2022-07-21T06:46:39;12.88;;;11.60;;
45887;SDS011;31595;51.418;7.572;2022-07-21T06:49:07;11.43;;;10.35;;
45887;SDS011;31595;51.418;7.572;2022-07-21T06:51:35;10.98;;;9.93;;
45887;SDS011;31595;51.418;7.572;2022-07-21T06:54:03;11.30;;;10.30;;
45887;SDS011;31595;51.418;7.572;2022-07-21T06:56:30;10.70;;;9.70;;
45887;SDS011;31595;51.418;7.572;2022-07-21T06:59:01;11.23;;;10.13;;
45887;SDS011;31595;51.418;7.572;2022-07-21T07:01:28;10.90;;;10.00;;
45887;SDS011;31595;51.418;7.572;2022-07-21T07:03:56;11.00;;;9.90;;
45887;SDS011;31595;51.418;7.572;2022-07-21T07:06:27;10.93;;;9.93;;
45887;SDS011;31595;51.418;7.572;2022-07-21T07:08:55;13.02;;;10.45;;
45887;SDS011;31595;51.418;7.572;2022-07-21T07:11:22;11.70;;;10.50;;
45887;SDS011;31595;51.418;7.572;2022-07-21T07:13:49;11.88;;;10.82;;
45887;SDS011;31595;51.418;7.572;2022-07-21T07:16:17;10.95;;;9.90;;
45887;SDS011;31595;51.418;7.572;2022-07-21T07:18:44;10.90;;;9.82;;
45887;SDS011;31595;51.418;7.572;2022-07-21T07:21:11;10.60;;;9.57;;
45887;SDS011;31595;51.418;7.572;2022-07-21T07:23:40;9.55;;;8.65;;
45887;SDS011;31595;51.418;7.572;2022-07-21T07:26:08;9.75;;;8.77;;
45887;SDS011;31595;51.418;7.572;2022-07-21T07:28:35;9.18;;;8.27;;
45887;SDS011;31595;51.418;7.572;2022-07-21T07:31:06;9.27;;;8.38;;
45887;SDS011;31595;51.418;7.572;2022-07-21T07:33:36;8.32;;;7.63;;
45887;SDS011;31595;51.418;7.572;2022-07-21T07:36:03;8.00;;;7.30;;
45887;SDS011;31595;51.418;7.572;2022-07-21T07:38:32;8.43;;;7.63;;
45887;SDS011;31595;51.418;7.572;2022-07-21T07:41:01;7.38;;;6.75;;
45887;SDS011;31595;51.418;7.572;2022-07-21T07:43:32;7.90;;;7.20;;
45887;SDS011;31595;51.418;7.572;2022-07-21T07:46:00;9.27;;;7.80;;
45887;SDS011;31595;51.418;7.572;2022-07-21T07:48:27;8.38;;;7.57;;
45887;SDS011;31595;51.418;7.572;2022-07-21T07:50:56;8.85;;;8.05;;
45887;SDS011;31595;51.418;7.572;2022-07-21T07:53:24;8.52;;;7.72;;
45887;SDS011;31595;51.418;7.572;2022-07-21T07:55:54;8.35;;;7.55;;
45887;SDS011;31595;51.418;7.572;2022-07-21T07:58:23;8.82;;;8.02;;
45887;SDS011;31595;51.418;7.572;2022-07-21T08:00:51;8.20;;;7.40;;
45887;SDS011;31595;51.418;7.572;2022-07-21T08:03:18;8.80;;;8.00;;
45887;SDS011;31595;51.418;7.572;2022-07-21T08:05:47;8.65;;;7.85;;
45887;SDS011;31595;51.418;7.572;2022-07-21T08:08:15;9.20;;;8.40;;
45887;SDS011;31595;51.418;7.572;2022-07-21T08:10:46;8.80;;;7.82;;
45887;SDS011;31595;51.418;7.572;2022-07-21T08:13:15;7.90;;;7.18;;
45887;SDS011;31595;51.418;7.572;2022-07-21T08:15:45;8.70;;;7.63;;
45887;SDS011;31595;51.418;7.572;2022-07-21T08:18:13;7.63;;;6.47;;
45887;SDS011;31595;51.418;7.572;2022-07-21T08:20:41;7.20;;;6.50;;
45887;SDS011;31595;51.418;7.572;2022-07-21T08:23:09;6.97;;;6.37;;
45887;SDS011;31595;51.418;7.572;2022-07-21T08:25:37;6.25;;;5.35;;
45887;SDS011;31595;51.418;7.572;2022-07-21T08:28:05;6.72;;;5.90;;
45887;SDS011;31595;51.418;7.572;2022-07-21T08:30:32;8.15;;;5.38;;
45887;SDS011;31595;51.418;7.572;2022-07-21T08:33:02;6.82;;;5.90;;
45887;SDS011;31595;51.418;7.572;2022-07-21T08:35:30;6.15;;;5.30;;
45887;SDS011;31595;51.418;7.572;2022-07-21T08:37:59;6.03;;;5.28;;
45887;SDS011;31595;51.418;7.572;2022-07-21T08:40:30;6.22;;;5.45;;
45887;SDS011;31595;51.418;7.572;2022-07-21T08:42:59;5.55;;;5.07;;
45887;SDS011;31595;51.418;7.572;2022-07-21T08:45:27;5.60;;;4.97;;
45887;SDS011;31595;51.418;7.572;2022-07-21T08:47:57;5.55;;;4.95;;
45887;SDS011;31595;51.418;7.572;2022-07-21T08:50:27;6.55;;;5.13;;
45887;SDS011;31595;51.418;7.572;2022-07-21T08:52:57;5.18;;;4.68;;
45887;SDS011;31595;51.418;7.572;2022-07-21T08:55:28;5.70;;;4.70;;
45887;SDS011;31595;51.418;7.572;2022-07-21T08:57:57;5.43;;;4.65;;
45887;SDS011;31595;51.418;7.572;2022-07-21T09:00:24;5.07;;;4.32;;
45887;SDS011;31595;51.418;7.572;2022-07-21T09:05:39;4.65;;;3.97;;
45887;SDS011;31595;51.418;7.572;2022-07-21T09:08:07;4.35;;;3.53;;
45887;SDS011;31595;51.418;7.572;2022-07-21T09:10:34;5.15;;;3.60;;
45887;SDS011;31595;51.418;7.572;2022-07-21T09:13:05;3.65;;;3.25;;
45887;SDS011;31595;51.418;7.572;2022-07-21T09:15:34;5.93;;;3.80;;
45887;SDS011;31595;51.418;7.572;2022-07-21T09:18:05;4.60;;;3.50;;
45887;SDS011;31595;51.418;7.572;2022-07-21T09:20:35;5.72;;;3.50;;
45887;SDS011;31595;51.418;7.572;2022-07-21T09:23:07;4.38;;;3.53;;
45887;SDS011;31595;51.418;7.572;2022-07-21T09:25:37;5.70;;;3.63;;
45887;SDS011;31595;51.418;7.572;2022-07-21T09:28:07;4.50;;;3.83;;
45887;SDS011;31595;51.418;7.572;2022-07-21T09:30:50;5.70;;;3.55;;
45887;SDS011;31595;51.418;7.572;2022-07-21T09:33:24;4.20;;;3.28;;
45887;SDS011;31595;51.418;7.572;2022-07-21T09:35:57;3.95;;;3.40;;
45887;SDS011;31595;51.418;7.572;2022-07-21T09:38:29;3.55;;;2.92;;
45887;SDS011;31595;51.418;7.572;2022-07-21T09:41:06;5.55;;;3.35;;
45887;SDS011;31595;51.418;7.572;2022-07-21T09:43:36;3.92;;;2.88;;
45887;SDS011;31595;51.418;7.572;2022-07-21T09:46:10;5.15;;;3.30;;
45887;SDS011;31595;51.418;7.572;2022-07-21T09:48:39;3.80;;;3.03;;
45887;SDS011;31595;51.418;7.572;2022-07-21T09:51:21;4.07;;;3.20;;
45887;SDS011;31595;51.418;7.572;2022-07-21T09:53:52;3.15;;;2.80;;
45887;SDS011;31595;51.418;7.572;2022-07-21T09:56:23;5.38;;;3.22;;
45887;SDS011;31595;51.418;7.572;2022-07-21T09:58:52;3.17;;;2.85;;
45887;SDS011;31595;51.418;7.572;2022-07-21T10:01:21;3.25;;;2.95;;
45887;SDS011;31595;51.418;7.572;2022-07-21T10:03:50;5.05;;;3.63;;
45887;SDS011;31595;51.418;7.572;2022-07-21T10:06:19;4.05;;;3.20;;
45887;SDS011;31595;51.418;7.572;2022-07-21T10:11:19;3.40;;;2.95;;
45887;SDS011;31595;51.418;7.572;2022-07-21T10:13:48;4.28;;;3.08;;
45887;SDS011;31595;51.418;7.572;2022-07-21T10:16:16;3.60;;;3.30;;
45887;SDS011;31595;51.418;7.572;2022-07-21T10:21:39;6.47;;;4.32;;
45887;SDS011;31595;51.418;7.572;2022-07-21T10:24:14;4.35;;;3.95;;
45887;SDS011;31595;51.418;7.572;2022-07-21T10:32:27;5.68;;;4.32;;
45887;SDS011;31595;51.418;7.572;2022-07-21T10:34:57;7.72;;;5.60;;
45887;SDS011;31595;51.418;7.572;2022-07-21T10:37:45;5.95;;;5.35;;
45887;SDS011;31595;51.418;7.572;2022-07-21T10:49:04;7.63;;;6.97;;
45887;SDS011;31595;51.418;7.572;2022-07-21T11:02:49;6.18;;;5.53;;
45887;SDS011;31595;51.418;7.572;2022-07-21T11:05:18;5.55;;;5.05;;
45887;SDS011;31595;51.418;7.572;2022-07-21T11:10:38;6.82;;;6.22;;
45887;SDS011;31595;51.418;7.572;2022-07-21T11:13:08;6.30;;;5.68;;
45887;SDS011;31595;51.418;7.572;2022-07-21T11:15:42;7.53;;;5.97;;
45887;SDS011;31595;51.418;7.572;2022-07-21T11:18:20;5.93;;;5.35;;
45887;SDS011;31595;51.418;7.572;2022-07-21T11:21:01;7.07;;;5.55;;
45887;SDS011;31595;51.418;7.572;2022-07-21T11:23:37;7.15;;;6.47;;
45887;SDS011;31595;51.418;7.572;2022-07-21T11:26:09;7.15;;;6.45;;
45887;SDS011;31595;51.418;7.572;2022-07-21T11:28:41;6.90;;;6.30;;
45887;SDS011;31595;51.418;7.572;2022-07-21T11:31:11;8.13;;;7.22;;
45887;SDS011;31595;51.418;7.572;2022-07-21T11:33:46;7.65;;;6.90;;
45887;SDS011;31595;51.418;7.572;2022-07-21T11:36:25;8.95;;;6.60;;
45887;SDS011;31595;51.418;7.572;2022-07-21T11:38:57;6.95;;;6.15;;
45887;SDS011;31595;51.418;7.572;2022-07-21T11:41:25;6.53;;;5.93;;
45887;SDS011;31595;51.418;7.572;2022-07-21T11:43:56;6.88;;;6.18;;
45887;SDS011;31595;51.418;7.572;2022-07-21T11:46:26;6.88;;;6.18;;
45887;SDS011;31595;51.418;7.572;2022-07-21T11:49:00;7.30;;;6.40;;
45887;SDS011;31595;51.418;7.572;2022-07-21T11:51:28;7.45;;;6.70;;
45887;SDS011;31595;51.418;7.572;2022-07-21T11:53:56;7.53;;;6.68;;
45887;SDS011;31595;51.418;7.572;2022-07-21T11:56:23;9.75;;;7.30;;
45887;SDS011;31595;51.418;7.572;2022-07-21T11:58:50;7.50;;;6.50;;
45887;SDS011;31595;51.418;7.572;2022-07-21T12:04:26;9.57;;;7.10;;
45887;SDS011;31595;51.418;7.572;2022-07-21T12:06:59;9.10;;;7.03;;
45887;SDS011;31595;51.418;7.572;2022-07-21T12:09:28;7.05;;;6.32;;
45887;SDS011;31595;51.418;7.572;2022-07-21T12:11:55;7.47;;;6.63;;
45887;SDS011;31595;51.418;7.572;2022-07-21T12:17:19;8.05;;;6.82;;
45887;SDS011;31595;51.418;7.572;2022-07-21T12:19:59;8.50;;;7.50;;
45887;SDS011;31595;51.418;7.572;2022-07-21T12:22:37;10.05;;;8.05;;
45887;SDS011;31595;51.418;7.572;2022-07-21T12:25:08;9.07;;;8.25;;
45887;SDS011;31595;51.418;7.572;2022-07-21T12:27:37;9.77;;;7.97;;
45887;SDS011;31595;51.418;7.572;2022-07-21T12:30:06;7.85;;;7.13;;
45887;SDS011;31595;51.418;7.572;2022-07-21T12:32:47;9.90;;;8.90;;
45887;SDS011;31595;51.418;7.572;2022-07-21T12:37:53;9.75;;;8.75;;
45887;SDS011;31595;51.418;7.572;2022-07-21T12:40:22;10.05;;;8.35;;
45887;SDS011;31595;51.418;7.572;2022-07-21T12:43:04;8.77;;;7.88;;
45887;SDS011;31595;51.418;7.572;2022-07-21T12:45:45;8.52;;;7.35;;
45887;SDS011;31595;51.418;7.572;2022-07-21T12:48:25;8.77;;;7.88;;
45887;SDS011;31595;51.418;7.572;2022-07-21T12:51:00;8.85;;;7.95;;
45887;SDS011;31595;51.418;7.572;2022-07-21T12:53:42;11.15;;;9.48;;
45887;SDS011;31595;51.418;7.572;2022-07-21T12:56:11;10.50;;;9.23;;
45887;SDS011;31595;51.418;7.572;2022-07-21T12:58:40;11.50;;;10.27;;
45887;SDS011;31595;51.418;7.572;2022-07-21T13:01:07;12.65;;;11.05;;
45887;SDS011;31595;51.418;7.572;2022-07-21T13:03:36;11.65;;;10.50;;
45887;SDS011;31595;51.418;7.572;2022-07-21T13:06:10;10.95;;;9.90;;
45887;SDS011;31595;51.418;7.572;2022-07-21T13:08:42;10.05;;;9.05;;
45887;SDS011;31595;51.418;7.572;2022-07-21T13:11:12;10.70;;;9.60;;
45887;SDS011;31595;51.418;7.572;2022-07-21T13:13:40;11.05;;;9.85;;
45887;SDS011;31595;51.418;7.572;2022-07-21T13:16:07;11.07;;;9.98;;
45887;SDS011;31595;51.418;7.572;2022-07-21T13:18:36;11.15;;;9.45;;
45887;SDS011;31595;51.418;7.572;2022-07-21T13:21:04;8.98;;;7.68;;
45887;SDS011;31595;51.418;7.572;2022-07-21T13:23:32;9.07;;;6.93;;
45887;SDS011;31595;51.418;7.572;2022-07-21T13:25:59;10.05;;;9.02;;
45887;SDS011;31595;51.418;7.572;2022-07-21T13:28:29;8.52;;;7.63;;
45887;SDS011;31595;51.418;7.572;2022-07-21T13:30:57;7.60;;;6.90;;
45887;SDS011;31595;51.418;7.572;2022-07-21T13:33:26;5.47;;;4.97;;
45887;SDS011;31595;51.418;7.572;2022-07-21T13:35:55;6.30;;;5.45;;
45887;SDS011;31595;51.418;7.572;2022-07-21T13:38:22;5.85;;;5.25;;
45887;SDS011;31595;51.418;7.572;2022-07-21T13:40:49;4.88;;;4.47;;
45887;SDS011;31595;51.418;7.572;2022-07-21T13:43:17;5.18;;;4.65;;
45887;SDS011;31595;51.418;7.572;2022-07-21T13:45:44;5.20;;;4.70;;
45887;SDS011;31595;51.418;7.572;2022-07-21T13:48:11;4.88;;;4.47;;
45887;SDS011;31595;51.418;7.572;2022-07-21T13:50:41;5.32;;;4.82;;
45887;SDS011;31595;51.418;7.572;2022-07-21T13:53:10;4.45;;;4.05;;
45887;SDS011;31595;51.418;7.572;2022-07-21T13:55:37;6.13;;;4.32;;
45887;SDS011;31595;51.418;7.572;2022-07-21T13:58:04;5.20;;;3.78;;
45887;SDS011;31595;51.418;7.572;2022-07-21T14:00:34;4.75;;;4.35;;
45887;SDS011;31595;51.418;7.572;2022-07-21T14:03:01;3.92;;;3.47;;
45887;SDS011;31595;51.418;7.572;2022-07-21T14:05:28;4.32;;;3.95;;
45887;SDS011;31595;51.418;7.572;2022-07-21T14:07:56;7.18;;;3.38;;
45887;SDS011;31595;51.418;7.572;2022-07-21T14:10:24;6.32;;;5.25;;
45887;SDS011;31595;51.418;7.572;2022-07-21T14:12:52;5.65;;;5.05;;
45887;SDS011;31595;51.418;7.572;2022-07-21T14:15:19;5.05;;;4.47;;
45887;SDS011;31595;51.418;7.572;2022-07-21T14:17:47;5.03;;;3.67;;
45887;SDS011;31595;51.418;7.572;2022-07-21T14:20:14;4.07;;;3.65;;
45887;SDS011;31595;51.418;7.572;2022-07-21T14:22:41;4.38;;;3.97;;
45887;SDS011;31595;51.418;7.572;2022-07-21T14:25:09;3.08;;;2.78;;
45887;SDS011;31595;51.418;7.572;2022-07-21T14:27:47;3.70;;;3.30;;
45887;SDS011;31595;51.418;7.572;2022-07-21T14:30:15;3.08;;;2.38;;
45887;SDS011;31595;51.418;7.572;2022-07-21T14:32:43;2.80;;;2.50;;
45887;SDS011;31595;51.418;7.572;2022-07-21T14:35:11;3.08;;;2.17;;
45887;SDS011;31595;51.418;7.572;2022-07-21T14:40:08;8.20;;;3.30;;
45887;SDS011;31595;51.418;7.572;2022-07-21T14:42:35;6.45;;;4.88;;
45887;SDS011;31595;51.418;7.572;2022-07-21T14:45:05;5.78;;;5.10;;
45887;SDS011;31595;51.418;7.572;2022-07-21T14:47:35;5.93;;;4.75;;
45887;SDS011;31595;51.418;7.572;2022-07-21T14:50:03;6.10;;;5.50;;
45887;SDS011;31595;51.418;7.572;2022-07-21T14:52:31;6.50;;;5.20;;
45887;SDS011;31595;51.418;7.572;2022-07-21T14:54:58;5.78;;;5.28;;
45887;SDS011;31595;51.418;7.572;2022-07-21T14:57:25;6.80;;;6.10;;
45887;SDS011;31595;51.418;7.572;2022-07-21T14:59:53;6.88;;;6.18;;
45887;SDS011;31595;51.418;7.572;2022-07-21T15:02:22;7.57;;;6.70;;
45887;SDS011;31595;51.418;7.572;2022-07-21T15:04:49;7.25;;;6.50;;
45887;SDS011;31595;51.418;7.572;2022-07-21T15:07:17;7.40;;;6.70;;
45887;SDS011;31595;51.418;7.572;2022-07-21T15:09:44;6.68;;;5.35;;
45887;SDS011;31595;51.418;7.572;2022-07-21T15:12:12;5.15;;;4.43;;
45887;SDS011;31595;51.418;7.572;2022-07-21T15:14:39;5.10;;;4.15;;
45887;SDS011;31595;51.418;7.572;2022-07-21T15:17:07;5.18;;;3.80;;
45887;SDS011;31595;51.418;7.572;2022-07-21T15:19:35;4.43;;;3.38;;
45887;SDS011;31595;51.418;7.572;2022-07-21T15:22:03;4.22;;;3.35;;
45887;SDS011;31595;51.418;7.572;2022-07-21T15:24:33;3.70;;;3.00;;
45887;SDS011;31595;51.418;7.572;2022-07-21T15:27:01;5.25;;;2.90;;
45887;SDS011;31595;51.418;7.572;2022-07-21T15:29:28;3.65;;;3.28;;
45887;SDS011;31595;51.418;7.572;2022-07-21T15:31:56;3.45;;;3.15;;
45887;SDS011;31595;51.418;7.572;2022-07-21T15:34:23;3.83;;;3.42;;
45887;SDS011;31595;51.418;7.572;2022-07-21T15:36:52;3.80;;;3.50;;
45887;SDS011;31595;51.418;7.572;2022-07-21T15:39:19;4.55;;;3.35;;
45887;SDS011;31595;51.418;7.572;2022-07-21T15:41:47;3.58;;;3.13;;
45887;SDS011;31595;51.418;7.572;2022-07-21T15:44:15;3.80;;;3.17;;
45887;SDS011;31595;51.418;7.572;2022-07-21T15:46:42;3.55;;;3.22;;
45887;SDS011;31595;51.418;7.572;2022-07-21T15:49:16;5.10;;;3.40;;